createdAt,value
2023-04-09T00:00:01.645Z,8.90
2023-04-09T00:00:11.916Z,8.89
2023-04-09T00:00:22.185Z,8.89
2023-04-09T00:00:32.497Z,8.90
2023-04-09T00:00:42.749Z,8.89
2023-04-09T00:00:53.010Z,8.89
2023-04-09T00:01:03.277Z,8.89
2023-04-09T00:01:13.545Z,8.89
2023-04-09T00:01:23.812Z,8.87
2023-04-09T00:01:34.158Z,8.87
2023-04-09T00:01:44.446Z,8.87
2023-04-09T00:01:54.704Z,8.86
2023-04-09T00:02:04.991Z,8.86
2023-04-09T00:02:15.307Z,8.87
2023-04-09T00:02:25.589Z,8.84
2023-04-09T00:02:35.951Z,8.87
2023-04-09T00:02:46.189Z,8.86
2023-04-09T00:02:56.535Z,8.86
2023-04-09T00:03:06.915Z,8.86
2023-04-09T00:03:17.284Z,8.84
2023-04-09T00:03:27.670Z,8.84
2023-04-09T00:03:38.080Z,8.86
2023-04-09T00:03:48.457Z,8.84
2023-04-09T00:03:58.759Z,8.86
2023-04-09T00:04:09.307Z,8.84
2023-04-09T00:04:19.554Z,8.82
2023-04-09T00:04:29.854Z,8.82
2023-04-09T00:04:40.235Z,8.81
2023-04-09T00:04:50.399Z,8.82
2023-04-09T00:05:00.683Z,8.82
2023-04-09T00:05:10.929Z,8.81
2023-04-09T00:05:21.217Z,8.82
2023-04-09T00:05:31.474Z,8.81
2023-04-09T00:05:41.738Z,8.79
2023-04-09T00:05:52.022Z,8.81
2023-04-09T00:06:02.290Z,8.81
2023-04-09T00:06:12.566Z,8.81
2023-04-09T00:06:22.818Z,8.81
2023-04-09T00:06:33.213Z,8.78
2023-04-09T00:06:43.497Z,8.78
2023-04-09T00:06:53.748Z,8.79
2023-04-09T00:07:04.018Z,8.79
2023-04-09T00:07:14.286Z,8.78
2023-04-09T00:07:24.584Z,8.77
2023-04-09T00:07:34.860Z,8.78
2023-04-09T00:07:45.110Z,8.78
2023-04-09T00:07:55.378Z,8.77
2023-04-09T00:08:05.651Z,8.77
2023-04-09T00:08:15.920Z,8.78
2023-04-09T00:08:26.190Z,8.78
2023-04-09T00:08:36.454Z,8.77
2023-04-09T00:08:46.734Z,8.77
2023-04-09T00:08:56.997Z,8.74
2023-04-09T00:09:07.273Z,8.77
2023-04-09T00:09:17.531Z,8.75
2023-04-09T00:09:27.801Z,8.75
2023-04-09T00:09:38.071Z,8.77
2023-04-09T00:09:48.341Z,8.77
2023-04-09T00:09:58.609Z,8.74
2023-04-09T00:10:08.938Z,8.75
2023-04-09T00:10:19.192Z,8.75
2023-04-09T00:10:29.461Z,8.75
2023-04-09T00:10:39.733Z,8.75
2023-04-09T00:10:50.018Z,8.74
2023-04-09T00:11:00.278Z,8.74
2023-04-09T00:11:10.559Z,8.72
2023-04-09T00:11:20.831Z,8.72
2023-04-09T00:11:31.098Z,8.72
2023-04-09T00:11:41.368Z,8.72
2023-04-09T00:11:51.644Z,8.72
2023-04-09T00:12:01.909Z,8.71
2023-04-09T00:12:12.174Z,8.74
2023-04-09T00:12:22.441Z,8.71
2023-04-09T00:12:32.709Z,8.71
2023-04-09T00:12:43.123Z,8.71
2023-04-09T00:12:53.437Z,8.71
2023-04-09T00:13:03.668Z,8.71
2023-04-09T00:13:14.329Z,8.72
2023-04-09T00:13:35.373Z,8.71
2023-04-09T00:13:39.503Z,8.71
2023-04-09T00:13:44.851Z,8.72
2023-04-09T00:13:55.117Z,8.69
2023-04-09T00:14:05.395Z,8.71
2023-04-09T00:14:15.663Z,8.71
2023-04-09T00:14:26.057Z,8.69
2023-04-09T00:14:36.326Z,8.71
2023-04-09T00:14:46.598Z,8.69
2023-04-09T00:14:56.838Z,8.68
2023-04-09T00:15:09.632Z,8.68
2023-04-09T00:15:27.799Z,8.69
2023-04-09T00:15:31.512Z,8.68
2023-04-09T00:15:37.949Z,8.69
2023-04-09T00:15:48.223Z,8.68
2023-04-09T00:15:58.496Z,8.68
2023-04-09T00:16:09.094Z,8.68
2023-04-09T00:16:19.080Z,8.68
2023-04-09T00:16:29.348Z,8.68
2023-04-09T00:16:39.685Z,8.68
2023-04-09T00:16:49.939Z,8.64
2023-04-09T00:17:00.223Z,8.66
2023-04-09T00:17:10.473Z,8.68
2023-04-09T00:17:20.764Z,8.64
2023-04-09T00:17:31.100Z,8.66
2023-04-09T00:17:41.393Z,8.66
2023-04-09T00:17:51.686Z,8.66
2023-04-09T00:18:02.023Z,8.64
2023-04-09T00:18:12.288Z,8.64
2023-04-09T00:18:22.570Z,8.64
2023-04-09T00:18:32.838Z,8.64
2023-04-09T00:18:43.100Z,8.64
2023-04-09T00:18:53.734Z,8.64
2023-04-09T00:19:03.721Z,8.64
2023-04-09T00:19:13.986Z,8.63
2023-04-09T00:19:24.253Z,8.64
2023-04-09T00:19:34.541Z,8.64
2023-04-09T00:19:44.812Z,8.64
2023-04-09T00:19:55.076Z,8.63
2023-04-09T00:20:05.349Z,8.61
2023-04-09T00:20:15.614Z,8.63
2023-04-09T00:20:25.915Z,8.63
2023-04-09T00:20:36.162Z,8.61
2023-04-09T00:20:46.428Z,8.61
2023-04-09T00:20:56.699Z,8.63
2023-04-09T00:21:06.973Z,8.61
2023-04-09T00:21:17.256Z,8.63
2023-04-09T00:21:27.528Z,8.61
2023-04-09T00:21:37.798Z,8.61
2023-04-09T00:21:48.090Z,8.60
2023-04-09T00:21:58.391Z,8.61
2023-04-09T00:22:08.642Z,8.60
2023-04-09T00:22:18.910Z,8.61
2023-04-09T00:22:29.173Z,8.60
2023-04-09T00:22:39.451Z,8.63
2023-04-09T00:22:49.711Z,8.60
2023-04-09T00:22:59.982Z,8.60
2023-04-09T00:23:11.743Z,8.60
2023-04-09T00:23:20.471Z,8.60
2023-04-09T00:23:30.737Z,8.60
2023-04-09T00:23:41.008Z,8.60
2023-04-09T00:23:51.284Z,8.59
2023-04-09T00:24:01.570Z,8.59
2023-04-09T00:24:11.822Z,8.59
2023-04-09T00:24:22.113Z,8.60
2023-04-09T00:24:32.386Z,8.59
2023-04-09T00:24:42.641Z,8.57
2023-04-09T00:24:52.913Z,8.57
2023-04-09T00:25:03.208Z,8.57
2023-04-09T00:25:13.474Z,8.59
2023-04-09T00:25:23.754Z,8.59
2023-04-09T00:25:33.983Z,8.59
2023-04-09T00:25:44.267Z,8.59
2023-04-09T00:25:54.552Z,8.59
2023-04-09T00:26:04.793Z,8.57
2023-04-09T00:26:15.093Z,8.59
2023-04-09T00:26:25.368Z,8.57
2023-04-09T00:26:35.649Z,8.56
2023-04-09T00:26:45.918Z,8.57
2023-04-09T00:26:56.186Z,8.56
2023-04-09T00:27:06.460Z,8.57
2023-04-09T00:27:16.727Z,8.57
2023-04-09T00:27:26.997Z,8.56
2023-04-09T00:27:37.276Z,8.56
2023-04-09T00:27:47.530Z,8.57
2023-04-09T00:27:57.807Z,8.56
2023-04-09T00:28:08.074Z,8.56
2023-04-09T00:28:18.352Z,8.56
2023-04-09T00:28:28.658Z,8.54
2023-04-09T00:28:38.905Z,8.54
2023-04-09T00:28:49.326Z,8.57
2023-04-09T00:28:59.566Z,8.54
2023-04-09T00:29:09.845Z,8.56
2023-04-09T00:29:20.104Z,8.57
2023-04-09T00:29:30.395Z,8.54
2023-04-09T00:29:40.640Z,8.57
2023-04-09T00:29:50.914Z,8.56
2023-04-09T00:30:01.191Z,8.53
2023-04-09T00:30:11.472Z,8.56
2023-04-09T00:30:21.737Z,8.56
2023-04-09T00:30:32.004Z,8.54
2023-04-09T00:30:42.265Z,8.56
2023-04-09T00:30:52.554Z,8.54
2023-04-09T00:31:02.827Z,8.54
2023-04-09T00:31:13.139Z,8.54
2023-04-09T00:31:23.400Z,8.54
2023-04-09T00:31:33.686Z,8.54
2023-04-09T00:31:43.963Z,8.54
2023-04-09T00:31:54.264Z,8.53
2023-04-09T00:32:04.580Z,8.54
2023-04-09T00:32:14.838Z,8.53
2023-04-09T00:32:25.156Z,8.53
2023-04-09T00:32:35.452Z,8.53
2023-04-09T00:32:45.774Z,8.53
2023-04-09T00:32:56.074Z,8.54
2023-04-09T00:33:06.342Z,8.52
2023-04-09T00:33:16.617Z,8.53
2023-04-09T00:33:26.888Z,8.54
2023-04-09T00:33:37.163Z,8.53
2023-04-09T00:33:47.426Z,8.52
2023-04-09T00:33:57.711Z,8.52
2023-04-09T00:34:07.974Z,8.52
2023-04-09T00:34:18.231Z,8.52
2023-04-09T00:34:28.498Z,8.52
2023-04-09T00:34:38.795Z,8.52
2023-04-09T00:34:49.032Z,8.52
2023-04-09T00:34:59.308Z,8.52
2023-04-09T00:35:09.576Z,8.52
2023-04-09T00:35:19.837Z,8.49
2023-04-09T00:35:30.106Z,8.50
2023-04-09T00:35:40.479Z,8.53
2023-04-09T00:35:50.760Z,8.53
2023-04-09T00:36:01.047Z,8.50
2023-04-09T00:36:11.347Z,8.52
2023-04-09T00:36:21.589Z,8.50
2023-04-09T00:36:31.875Z,8.50
2023-04-09T00:36:42.127Z,8.52
2023-04-09T00:36:52.401Z,8.50
2023-04-09T00:37:02.669Z,8.52
2023-04-09T00:37:12.931Z,8.52
2023-04-09T00:37:23.198Z,8.50
2023-04-09T00:37:33.471Z,8.50
2023-04-09T00:37:43.739Z,8.50
2023-04-09T00:37:54.005Z,8.50
2023-04-09T00:38:04.302Z,8.52
2023-04-09T00:38:14.564Z,8.49
2023-04-09T00:38:24.805Z,8.49
2023-04-09T00:38:35.072Z,8.50
2023-04-09T00:38:45.341Z,8.46
2023-04-09T00:38:55.636Z,8.49
2023-04-09T00:39:05.898Z,8.49
2023-04-09T00:39:16.147Z,8.49
2023-04-09T00:39:26.416Z,8.46
2023-04-09T00:39:36.681Z,8.46
2023-04-09T00:39:46.950Z,8.50
2023-04-09T00:39:57.218Z,8.49
2023-04-09T00:40:07.508Z,8.49
2023-04-09T00:40:17.760Z,8.49
2023-04-09T00:40:28.026Z,8.46
2023-04-09T00:40:38.294Z,8.46
2023-04-09T00:40:48.566Z,8.46
2023-04-09T00:40:58.880Z,8.46
2023-04-09T00:41:09.135Z,8.45
2023-04-09T00:41:19.406Z,8.46
2023-04-09T00:41:29.674Z,8.46
2023-04-09T00:41:39.940Z,8.46
2023-04-09T00:41:50.216Z,8.45
2023-04-09T00:42:00.475Z,8.46
2023-04-09T00:42:10.757Z,8.46
2023-04-09T00:42:21.014Z,8.45
2023-04-09T00:42:31.285Z,8.46
2023-04-09T00:42:41.583Z,8.45
2023-04-09T00:42:51.833Z,8.45
2023-04-09T00:43:02.102Z,8.46
2023-04-09T00:43:12.380Z,8.44
2023-04-09T00:43:22.648Z,8.46
2023-04-09T00:43:32.924Z,8.44
2023-04-09T00:43:43.199Z,8.46
2023-04-09T00:43:53.464Z,8.45
2023-04-09T00:44:03.732Z,8.45
2023-04-09T00:44:14.008Z,8.42
2023-04-09T00:44:24.268Z,8.45
2023-04-09T00:44:34.539Z,8.45
2023-04-09T00:44:44.845Z,8.44
2023-04-09T00:44:55.091Z,8.45
2023-04-09T00:45:05.397Z,8.45
2023-04-09T00:45:15.664Z,8.44
2023-04-09T00:45:25.975Z,8.44
2023-04-09T00:45:36.266Z,8.44
2023-04-09T00:45:46.565Z,8.44
2023-04-09T00:45:56.838Z,8.42
2023-04-09T00:46:07.078Z,8.44
2023-04-09T00:46:17.370Z,8.42
2023-04-09T00:46:27.615Z,8.44
2023-04-09T00:46:37.874Z,8.42
2023-04-09T00:46:48.142Z,8.42
2023-04-09T00:46:58.415Z,8.42
2023-04-09T00:47:08.691Z,8.41
2023-04-09T00:47:18.948Z,8.42
2023-04-09T00:47:29.245Z,8.39
2023-04-09T00:47:39.528Z,8.39
2023-04-09T00:47:49.815Z,8.41
2023-04-09T00:48:00.091Z,8.41
2023-04-09T00:48:10.360Z,8.41
2023-04-09T00:48:20.672Z,8.42
2023-04-09T00:48:30.946Z,8.41
2023-04-09T00:48:41.186Z,8.42
2023-04-09T00:48:51.692Z,8.41
2023-04-09T00:49:01.884Z,8.39
2023-04-09T00:49:12.141Z,8.38
2023-04-09T00:49:22.405Z,8.41
2023-04-09T00:49:32.665Z,8.39
2023-04-09T00:49:42.935Z,8.38
2023-04-09T00:49:53.208Z,8.38
2023-04-09T00:50:03.484Z,8.39
2023-04-09T00:50:13.743Z,8.39
2023-04-09T00:50:24.010Z,8.39
2023-04-09T00:50:34.435Z,8.39
2023-04-09T00:50:44.689Z,8.38
2023-04-09T00:50:54.975Z,8.38
2023-04-09T00:51:05.230Z,8.39
2023-04-09T00:51:15.483Z,8.36
2023-04-09T00:51:25.752Z,8.39
2023-04-09T00:51:36.017Z,8.36
2023-04-09T00:51:46.295Z,8.39
2023-04-09T00:51:56.557Z,8.38
2023-04-09T00:52:06.826Z,8.36
2023-04-09T00:52:17.094Z,8.38
2023-04-09T00:52:27.384Z,8.38
2023-04-09T00:52:37.643Z,8.38
2023-04-09T00:52:47.909Z,8.36
2023-04-09T00:52:58.181Z,8.39
2023-04-09T00:53:08.447Z,8.39
2023-04-09T00:53:18.719Z,8.36
2023-04-09T00:53:29.012Z,8.36
2023-04-09T00:53:39.263Z,8.35
2023-04-09T00:53:49.572Z,8.36
2023-04-09T00:53:59.840Z,8.38
2023-04-09T00:54:10.118Z,8.35
2023-04-09T00:54:20.383Z,8.36
2023-04-09T00:54:30.650Z,8.36
2023-04-09T00:54:40.921Z,8.36
2023-04-09T00:54:51.205Z,8.35
2023-04-09T00:55:01.459Z,8.35
2023-04-09T00:55:11.727Z,8.35
2023-04-09T00:55:21.999Z,8.35
2023-04-09T00:55:32.261Z,8.35
2023-04-09T00:55:42.549Z,8.36
2023-04-09T00:55:52.816Z,8.35
2023-04-09T00:56:03.111Z,8.34
2023-04-09T00:56:13.352Z,8.34
2023-04-09T00:56:23.626Z,8.34
2023-04-09T00:56:33.890Z,8.34
2023-04-09T00:56:44.159Z,8.35
2023-04-09T00:56:54.426Z,8.34
2023-04-09T00:57:04.696Z,8.34
2023-04-09T00:57:14.963Z,8.34
2023-04-09T00:57:25.233Z,8.34
2023-04-09T00:57:35.500Z,8.32
2023-04-09T00:57:45.800Z,8.32
2023-04-09T00:57:56.036Z,8.34
2023-04-09T00:58:06.306Z,8.34
2023-04-09T00:58:16.572Z,8.32
2023-04-09T00:58:26.843Z,8.32
2023-04-09T00:58:37.111Z,8.34
2023-04-09T00:58:47.401Z,8.32
2023-04-09T00:58:57.649Z,8.32
2023-04-09T00:59:07.968Z,8.31
2023-04-09T00:59:18.223Z,8.32
2023-04-09T00:59:28.486Z,8.28
2023-04-09T00:59:38.796Z,8.31
2023-04-09T00:59:49.086Z,8.31
2023-04-09T00:59:59.324Z,8.28
2023-04-09T01:00:09.595Z,8.28
2023-04-09T01:00:19.862Z,8.31
2023-04-09T01:00:30.147Z,8.28
2023-04-09T01:00:40.515Z,8.31
2023-04-09T01:00:50.728Z,8.32
2023-04-09T01:01:01.044Z,8.32
2023-04-09T01:01:11.360Z,8.31
2023-04-09T01:01:21.669Z,8.31
2023-04-09T01:01:31.987Z,8.28
2023-04-09T01:01:42.348Z,8.31
2023-04-09T01:01:52.646Z,8.28
2023-04-09T01:02:03.011Z,8.28
2023-04-09T01:02:13.403Z,8.28
2023-04-09T01:02:23.825Z,8.28
2023-04-09T01:02:34.066Z,8.26
2023-04-09T01:02:44.522Z,8.31
2023-04-09T01:02:54.788Z,8.27
2023-04-09T01:03:05.147Z,8.27
2023-04-09T01:03:15.485Z,8.27
2023-04-09T01:03:25.861Z,8.26
2023-04-09T01:03:36.399Z,8.28
2023-04-09T01:03:46.863Z,8.26
2023-04-09T01:03:56.960Z,8.27
2023-04-09T01:04:07.211Z,8.26
2023-04-09T01:04:17.478Z,8.27
2023-04-09T01:04:27.758Z,8.26
2023-04-09T01:04:38.023Z,8.24
2023-04-09T01:04:48.290Z,8.26
2023-04-09T01:04:58.568Z,8.26
2023-04-09T01:05:08.829Z,8.27
2023-04-09T01:05:19.092Z,8.24
2023-04-09T01:05:29.360Z,8.26
2023-04-09T01:05:39.644Z,8.24
2023-04-09T01:05:49.921Z,8.24
2023-04-09T01:06:00.201Z,8.24
2023-04-09T01:06:10.457Z,8.24
2023-04-09T01:06:20.722Z,8.24
2023-04-09T01:06:30.988Z,8.24
2023-04-09T01:06:41.257Z,8.23
2023-04-09T01:06:51.537Z,8.24
2023-04-09T01:07:01.797Z,8.23
2023-04-09T01:07:12.062Z,8.23
2023-04-09T01:07:22.337Z,8.24
2023-04-09T01:07:32.605Z,8.23
2023-04-09T01:07:42.868Z,8.20
2023-04-09T01:07:53.172Z,8.21
2023-04-09T01:08:03.426Z,8.24
2023-04-09T01:08:13.699Z,8.20
2023-04-09T01:08:23.964Z,8.21
2023-04-09T01:08:34.235Z,8.21
2023-04-09T01:08:44.504Z,8.20
2023-04-09T01:08:54.972Z,8.21
2023-04-09T01:09:05.145Z,8.20
2023-04-09T01:09:15.420Z,8.21
2023-04-09T01:09:25.690Z,8.20
2023-04-09T01:09:35.950Z,8.18
2023-04-09T01:09:46.219Z,8.20
2023-04-09T01:09:56.499Z,8.18
2023-04-09T01:10:06.787Z,8.20
2023-04-09T01:10:17.065Z,8.20
2023-04-09T01:10:27.335Z,8.20
2023-04-09T01:10:37.598Z,8.18
2023-04-09T01:10:47.883Z,8.16
2023-04-09T01:10:58.148Z,8.17
2023-04-09T01:11:08.446Z,8.17
2023-04-09T01:11:18.684Z,8.17
2023-04-09T01:11:28.973Z,8.17
2023-04-09T01:11:39.223Z,8.17
2023-04-09T01:11:49.496Z,8.18
2023-04-09T01:11:59.762Z,8.16
2023-04-09T01:12:10.025Z,8.16
2023-04-09T01:12:20.395Z,8.16
2023-04-09T01:12:30.642Z,8.16
2023-04-09T01:12:40.911Z,8.14
2023-04-09T01:12:51.178Z,8.14
2023-04-09T01:13:01.449Z,8.16
2023-04-09T01:13:11.763Z,8.14
2023-04-09T01:13:22.049Z,8.14
2023-04-09T01:13:32.285Z,8.14
2023-04-09T01:13:42.547Z,8.14
2023-04-09T01:13:52.831Z,8.14
2023-04-09T01:14:03.106Z,8.14
2023-04-09T01:14:13.364Z,8.14
2023-04-09T01:14:23.648Z,8.11
2023-04-09T01:14:33.902Z,8.11
2023-04-09T01:14:44.169Z,8.14
2023-04-09T01:14:54.454Z,8.13
2023-04-09T01:15:04.708Z,8.13
2023-04-09T01:15:15.003Z,8.11
2023-04-09T01:15:25.252Z,8.13
2023-04-09T01:15:35.548Z,8.11
2023-04-09T01:15:45.813Z,8.11
2023-04-09T01:15:56.094Z,8.09
2023-04-09T01:16:06.393Z,8.09
2023-04-09T01:16:16.622Z,8.09
2023-04-09T01:16:26.869Z,8.09
2023-04-09T01:16:37.141Z,8.09
2023-04-09T01:16:47.452Z,8.09
2023-04-09T01:16:57.766Z,8.09
2023-04-09T01:17:07.995Z,8.08
2023-04-09T01:17:18.265Z,8.08
2023-04-09T01:17:28.728Z,8.08
2023-04-09T01:17:38.982Z,8.09
2023-04-09T01:17:49.307Z,8.09
2023-04-09T01:17:59.611Z,8.08
2023-04-09T01:18:09.859Z,8.08
2023-04-09T01:18:20.110Z,8.08
2023-04-09T01:18:30.378Z,8.08
2023-04-09T01:18:40.671Z,8.08
2023-04-09T01:18:51.138Z,8.06
2023-04-09T01:19:01.338Z,8.06
2023-04-09T01:19:11.626Z,8.06
2023-04-09T01:19:21.875Z,8.05
2023-04-09T01:19:32.141Z,8.06
2023-04-09T01:19:42.446Z,8.05
2023-04-09T01:19:52.681Z,8.05
2023-04-09T01:20:02.970Z,8.03
2023-04-09T01:20:13.212Z,8.05
2023-04-09T01:20:23.485Z,8.03
2023-04-09T01:20:33.770Z,8.05
2023-04-09T01:20:44.063Z,8.06
2023-04-09T01:20:54.315Z,8.05
2023-04-09T01:21:04.591Z,8.05
2023-04-09T01:21:14.857Z,8.03
2023-04-09T01:21:25.117Z,8.02
2023-04-09T01:21:35.387Z,8.05
2023-04-09T01:21:45.657Z,8.03
2023-04-09T01:21:55.923Z,8.03
2023-04-09T01:22:06.191Z,8.03
2023-04-09T01:22:16.459Z,8.02
2023-04-09T01:22:26.732Z,8.03
2023-04-09T01:22:37.034Z,8.03
2023-04-09T01:22:47.281Z,8.01
2023-04-09T01:22:57.562Z,8.01
2023-04-09T01:23:07.818Z,8.02
2023-04-09T01:23:18.088Z,8.02
2023-04-09T01:23:28.356Z,8.02
2023-04-09T01:23:38.620Z,8.01
2023-04-09T01:23:48.893Z,8.01
2023-04-09T01:23:59.174Z,8.02
2023-04-09T01:24:09.432Z,8.02
2023-04-09T01:24:19.715Z,8.02
2023-04-09T01:24:29.963Z,8.01
2023-04-09T01:24:40.236Z,8.01
2023-04-09T01:24:50.514Z,8.02
2023-04-09T01:25:00.775Z,8.01
2023-04-09T01:25:11.058Z,8.01
2023-04-09T01:25:21.308Z,7.99
2023-04-09T01:25:31.579Z,7.99
2023-04-09T01:25:41.875Z,7.99
2023-04-09T01:25:52.141Z,7.98
2023-04-09T01:26:02.405Z,7.99
2023-04-09T01:26:12.702Z,7.99
2023-04-09T01:26:22.948Z,7.99
2023-04-09T01:26:33.212Z,7.99
2023-04-09T01:26:43.485Z,7.98
2023-04-09T01:26:53.753Z,7.98
2023-04-09T01:27:04.014Z,7.96
2023-04-09T01:27:14.282Z,7.98
2023-04-09T01:27:24.550Z,7.99
2023-04-09T01:27:34.822Z,7.98
2023-04-09T01:27:45.088Z,7.98
2023-04-09T01:27:55.365Z,7.96
2023-04-09T01:28:05.631Z,7.95
2023-04-09T01:28:15.901Z,7.98
2023-04-09T01:28:26.183Z,7.98
2023-04-09T01:28:36.443Z,7.98
2023-04-09T01:28:46.706Z,7.98
2023-04-09T01:28:56.980Z,7.96
2023-04-09T01:29:07.251Z,7.96
2023-04-09T01:29:17.523Z,7.95
2023-04-09T01:29:27.798Z,7.96
2023-04-09T01:29:38.063Z,7.95
2023-04-09T01:29:48.345Z,7.95
2023-04-09T01:29:58.596Z,7.96
2023-04-09T01:30:08.936Z,7.95
2023-04-09T01:30:19.186Z,7.95
2023-04-09T01:30:29.472Z,7.95
2023-04-09T01:30:39.744Z,7.96
2023-04-09T01:30:50.064Z,7.96
2023-04-09T01:31:00.336Z,7.95
2023-04-09T01:31:10.661Z,7.95
2023-04-09T01:31:20.946Z,7.93
2023-04-09T01:31:31.219Z,7.93
2023-04-09T01:31:41.483Z,7.93
2023-04-09T01:31:51.748Z,7.93
2023-04-09T01:32:02.024Z,7.95
2023-04-09T01:32:12.296Z,7.93
2023-04-09T01:32:22.588Z,7.93
2023-04-09T01:32:32.872Z,7.93
2023-04-09T01:32:43.121Z,7.93
2023-04-09T01:32:53.481Z,7.91
2023-04-09T01:33:03.731Z,7.93
2023-04-09T01:33:14.005Z,7.93
2023-04-09T01:33:24.260Z,7.93
2023-04-09T01:33:34.534Z,7.91
2023-04-09T01:33:44.804Z,7.93
2023-04-09T01:33:55.097Z,7.93
2023-04-09T01:34:05.351Z,7.91
2023-04-09T01:34:15.630Z,7.93
2023-04-09T01:34:25.882Z,7.90
2023-04-09T01:34:36.141Z,7.93
2023-04-09T01:34:46.434Z,7.91
2023-04-09T01:34:56.680Z,7.91
2023-04-09T01:35:06.952Z,7.91
2023-04-09T01:35:17.231Z,7.90
2023-04-09T01:35:27.499Z,7.91
2023-04-09T01:35:37.820Z,7.90
2023-04-09T01:35:48.128Z,7.90
2023-04-09T01:35:58.392Z,7.90
2023-04-09T01:36:08.701Z,7.90
2023-04-09T01:36:18.935Z,7.91
2023-04-09T01:36:29.221Z,7.88
2023-04-09T01:36:39.483Z,7.88
2023-04-09T01:36:49.754Z,7.88
2023-04-09T01:37:00.036Z,7.88
2023-04-09T01:37:10.292Z,7.90
2023-04-09T01:37:20.560Z,7.88
2023-04-09T01:37:30.828Z,7.90
2023-04-09T01:37:41.094Z,7.88
2023-04-09T01:37:51.394Z,7.90
2023-04-09T01:38:01.654Z,7.88
2023-04-09T01:38:11.931Z,7.88
2023-04-09T01:38:22.198Z,7.88
2023-04-09T01:38:32.463Z,7.88
2023-04-09T01:38:42.746Z,7.88
2023-04-09T01:38:53.327Z,7.87
2023-04-09T01:39:03.300Z,7.88
2023-04-09T01:39:13.562Z,7.87
2023-04-09T01:39:23.837Z,7.85
2023-04-09T01:39:34.124Z,7.87
2023-04-09T01:39:44.379Z,7.87
2023-04-09T01:39:54.646Z,7.85
2023-04-09T01:40:04.917Z,7.87
2023-04-09T01:40:15.181Z,7.87
2023-04-09T01:40:25.448Z,7.87
2023-04-09T01:40:35.719Z,7.87
2023-04-09T01:40:46.002Z,7.85
2023-04-09T01:40:56.287Z,7.85
2023-04-09T01:41:06.554Z,7.87
2023-04-09T01:41:16.846Z,7.84
2023-04-09T01:41:27.092Z,7.85
2023-04-09T01:41:37.358Z,7.87
2023-04-09T01:41:47.627Z,7.85
2023-04-09T01:41:57.896Z,7.85
2023-04-09T01:42:08.168Z,7.87
2023-04-09T01:42:18.433Z,7.85
2023-04-09T01:42:28.704Z,7.85
2023-04-09T01:42:38.988Z,7.84
2023-04-09T01:42:49.242Z,7.84
2023-04-09T01:42:59.515Z,7.85
2023-04-09T01:43:09.779Z,7.85
2023-04-09T01:43:20.046Z,7.84
2023-04-09T01:43:30.336Z,7.84
2023-04-09T01:43:40.586Z,7.85
2023-04-09T01:43:50.854Z,7.85
2023-04-09T01:44:01.152Z,7.84
2023-04-09T01:44:11.397Z,7.85
2023-04-09T01:44:21.663Z,7.84
2023-04-09T01:44:31.936Z,7.85
2023-04-09T01:44:42.205Z,7.84
2023-04-09T01:44:52.468Z,7.84
2023-04-09T01:45:02.746Z,7.84
2023-04-09T01:45:13.018Z,7.83
2023-04-09T01:45:23.289Z,7.83
2023-04-09T01:45:33.548Z,7.84
2023-04-09T01:45:43.865Z,7.83
2023-04-09T01:45:54.195Z,7.83
2023-04-09T01:46:04.480Z,7.84
2023-04-09T01:46:14.801Z,7.83
2023-04-09T01:46:25.089Z,7.84
2023-04-09T01:46:35.340Z,7.84
2023-04-09T01:46:45.598Z,7.84
2023-04-09T01:46:55.869Z,7.83
2023-04-09T01:47:06.140Z,7.83
2023-04-09T01:47:16.412Z,7.83
2023-04-09T01:47:26.733Z,7.81
2023-04-09T01:47:37.019Z,7.83
2023-04-09T01:47:47.280Z,7.81
2023-04-09T01:47:57.607Z,7.83
2023-04-09T01:48:07.848Z,7.81
2023-04-09T01:48:18.121Z,7.81
2023-04-09T01:48:28.387Z,7.83
2023-04-09T01:48:38.657Z,7.83
2023-04-09T01:48:49.062Z,7.83
2023-04-09T01:48:59.209Z,7.83
2023-04-09T01:49:09.491Z,7.81
2023-04-09T01:49:19.745Z,7.80
2023-04-09T01:49:30.027Z,7.81
2023-04-09T01:49:40.284Z,7.83
2023-04-09T01:49:50.551Z,7.84
2023-04-09T01:50:00.824Z,7.83
2023-04-09T01:50:11.100Z,7.83
2023-04-09T01:50:21.370Z,7.81
2023-04-09T01:50:31.639Z,7.81
2023-04-09T01:50:41.907Z,7.83
2023-04-09T01:50:52.193Z,7.81
2023-04-09T01:51:09.139Z,7.80
2023-04-09T01:51:12.729Z,7.80
2023-04-09T01:51:23.009Z,7.81
2023-04-09T01:51:33.291Z,7.80
2023-04-09T01:51:43.557Z,7.81
2023-04-09T01:51:53.816Z,7.80
2023-04-09T01:52:14.295Z,7.80
2023-04-09T01:52:24.565Z,7.80
2023-04-09T01:52:34.854Z,7.81
2023-04-09T01:52:45.118Z,7.80
2023-04-09T01:52:55.384Z,7.80
2023-04-09T01:53:05.641Z,7.80
2023-04-09T01:53:15.913Z,7.81
2023-04-09T01:53:26.178Z,7.81
2023-04-09T01:53:36.473Z,7.78
2023-04-09T01:53:46.744Z,7.80
2023-04-09T01:53:57.016Z,7.80
2023-04-09T01:54:07.290Z,7.80
2023-04-09T01:54:17.559Z,7.78
2023-04-09T01:54:27.829Z,7.80
2023-04-09T01:54:38.087Z,7.80
2023-04-09T01:54:48.356Z,7.78
2023-04-09T01:54:58.626Z,7.80
2023-04-09T01:55:08.896Z,7.80
2023-04-09T01:55:19.173Z,7.80
2023-04-09T01:55:29.433Z,7.78
2023-04-09T01:55:39.698Z,7.81
2023-04-09T01:55:50.009Z,7.80
2023-04-09T01:56:00.277Z,7.80
2023-04-09T01:56:10.546Z,7.80
2023-04-09T01:56:20.833Z,7.78
2023-04-09T01:56:31.081Z,7.75
2023-04-09T01:56:41.353Z,7.77
2023-04-09T01:56:51.638Z,7.77
2023-04-09T01:57:01.894Z,7.77
2023-04-09T01:57:12.158Z,7.78
2023-04-09T01:57:22.453Z,7.77
2023-04-09T01:57:32.696Z,7.77
2023-04-09T01:57:42.964Z,7.78
2023-04-09T01:57:53.233Z,7.77
2023-04-09T01:58:03.507Z,7.77
2023-04-09T01:58:13.783Z,7.77
2023-04-09T01:58:24.037Z,7.77
2023-04-09T01:58:34.307Z,7.77
2023-04-09T01:58:44.572Z,7.78
2023-04-09T01:58:55.092Z,7.78
2023-04-09T01:59:05.263Z,7.77
2023-04-09T01:59:15.533Z,7.77
2023-04-09T01:59:25.806Z,7.78
2023-04-09T01:59:36.070Z,7.78
2023-04-09T01:59:46.336Z,7.78
2023-04-09T01:59:56.610Z,7.75
2023-04-09T02:00:06.904Z,7.78
2023-04-09T02:00:17.148Z,7.77
2023-04-09T02:00:27.434Z,7.75
2023-04-09T02:00:37.693Z,7.77
2023-04-09T02:00:47.974Z,7.75
2023-04-09T02:00:58.284Z,7.75
2023-04-09T02:01:08.600Z,7.77
2023-04-09T02:01:18.968Z,7.75
2023-04-09T02:01:29.270Z,7.77
2023-04-09T02:01:39.561Z,7.77
2023-04-09T02:01:50.147Z,7.75
2023-04-09T02:02:00.264Z,7.75
2023-04-09T02:02:10.582Z,7.75
2023-04-09T02:02:21.031Z,7.75
2023-04-09T02:02:31.210Z,7.75
2023-04-09T02:02:41.558Z,7.75
2023-04-09T02:02:51.925Z,7.75
2023-04-09T02:03:02.417Z,7.74
2023-04-09T02:03:12.585Z,7.75
2023-04-09T02:03:22.899Z,7.72
2023-04-09T02:03:33.257Z,7.75
2023-04-09T02:03:43.607Z,7.75
2023-04-09T02:03:53.958Z,7.75
2023-04-09T02:04:04.444Z,7.75
2023-04-09T02:04:14.527Z,7.75
2023-04-09T02:04:24.802Z,7.74
2023-04-09T02:04:35.063Z,7.72
2023-04-09T02:04:45.332Z,7.74
2023-04-09T02:04:55.600Z,7.74
2023-04-09T02:05:05.876Z,7.74
2023-04-09T02:05:16.137Z,7.74
2023-04-09T02:05:26.407Z,7.70
2023-04-09T02:05:36.677Z,7.72
2023-04-09T02:05:46.960Z,7.74
2023-04-09T02:05:57.360Z,7.70
2023-04-09T02:06:07.590Z,7.72
2023-04-09T02:06:17.859Z,7.70
2023-04-09T02:06:28.130Z,7.72
2023-04-09T02:06:38.396Z,7.72
2023-04-09T02:06:48.665Z,7.72
2023-04-09T02:06:58.940Z,7.72
2023-04-09T02:07:09.332Z,7.70
2023-04-09T02:07:19.607Z,7.72
2023-04-09T02:07:29.870Z,7.72
2023-04-09T02:07:40.120Z,7.69
2023-04-09T02:07:50.429Z,7.70
2023-04-09T02:08:00.677Z,7.72
2023-04-09T02:08:10.960Z,7.70
2023-04-09T02:08:21.266Z,7.70
2023-04-09T02:08:31.530Z,7.72
2023-04-09T02:08:41.791Z,7.70
2023-04-09T02:08:52.187Z,7.72
2023-04-09T02:09:02.293Z,7.69
2023-04-09T02:09:12.588Z,7.70
2023-04-09T02:09:22.832Z,7.69
2023-04-09T02:09:33.106Z,7.70
2023-04-09T02:09:43.373Z,7.70
2023-04-09T02:09:53.672Z,7.69
2023-04-09T02:10:03.916Z,7.70
2023-04-09T02:10:14.182Z,7.70
2023-04-09T02:10:24.446Z,7.69
2023-04-09T02:10:34.716Z,7.70
2023-04-09T02:10:45.114Z,7.70
2023-04-09T02:10:55.413Z,7.70
2023-04-09T02:11:05.660Z,7.70
2023-04-09T02:11:15.938Z,7.70
2023-04-09T02:11:26.215Z,7.70
2023-04-09T02:11:36.461Z,7.69
2023-04-09T02:11:46.731Z,7.70
2023-04-09T02:11:57.002Z,7.70
2023-04-09T02:12:07.269Z,7.69
2023-04-09T02:12:17.537Z,7.70
2023-04-09T02:12:27.806Z,7.69
2023-04-09T02:12:38.077Z,7.70
2023-04-09T02:12:48.345Z,7.69
2023-04-09T02:12:58.612Z,7.67
2023-04-09T02:13:08.880Z,7.69
2023-04-09T02:13:19.181Z,7.67
2023-04-09T02:13:29.418Z,7.69
2023-04-09T02:13:39.689Z,7.69
2023-04-09T02:13:49.956Z,7.67
2023-04-09T02:14:00.226Z,7.67
2023-04-09T02:14:10.495Z,7.66
2023-04-09T02:14:20.769Z,7.67
2023-04-09T02:14:31.044Z,7.67
2023-04-09T02:14:41.382Z,7.67
2023-04-09T02:14:51.659Z,7.67
2023-04-09T02:15:01.903Z,7.67
2023-04-09T02:15:12.173Z,7.67
2023-04-09T02:15:22.437Z,7.66
2023-04-09T02:15:32.800Z,7.66
2023-04-09T02:15:43.042Z,7.67
2023-04-09T02:15:53.330Z,7.67
2023-04-09T02:16:03.638Z,7.64
2023-04-09T02:16:13.933Z,7.67
2023-04-09T02:16:24.221Z,7.64
2023-04-09T02:16:34.475Z,7.66
2023-04-09T02:16:44.742Z,7.64
2023-04-09T02:16:55.027Z,7.64